sensor_id;sensor_type;location;lat;lon;timestamp;temperature;humidity
31727;DHT22;18308;53.072;8.820;2022-07-03T00:00:59;19.20;99.90
31727;DHT22;18308;53.072;8.820;2022-07-03T00:03:26;19.20;99.90
31727;DHT22;18308;53.072;8.820;2022-07-03T00:05:51;19.20;99.90
31727;DHT22;18308;53.072;8.820;2022-07-03T00:08:17;19.20;99.90
31727;DHT22;18308;53.072;8.820;2022-07-03T00:10:42;19.20;99.90
31727;DHT22;18308;53.072;8.820;2022-07-03T00:13:08;19.10;99.90
31727;DHT22;18308;53.072;8.820;2022-07-03T00:15:34;19.10;99.90
31727;DHT22;18308;53.072;8.820;2022-07-03T00:17:59;19.10;99.90
31727;DHT22;18308;53.072;8.820;2022-07-03T00:20:25;19.10;99.90
31727;DHT22;18308;53.072;8.820;2022-07-03T00:22:54;19.00;99.90
31727;DHT22;18308;53.072;8.820;2022-07-03T00:25:20;19.10;99.90
31727;DHT22;18308;53.072;8.820;2022-07-03T00:27:46;19.10;99.90
31727;DHT22;18308;53.072;8.820;2022-07-03T00:30:14;19.10;99.90
31727;DHT22;18308;53.072;8.820;2022-07-03T00:32:42;19.10;99.90
31727;DHT22;18308;53.072;8.820;2022-07-03T00:35:08;19.10;99.90
31727;DHT22;18308;53.072;8.820;2022-07-03T00:37:34;19.10;99.90
31727;DHT22;18308;53.072;8.820;2022-07-03T00:39:59;19.00;99.90
31727;DHT22;18308;53.072;8.820;2022-07-03T00:42:25;19.00;99.90
31727;DHT22;18308;53.072;8.820;2022-07-03T00:44:53;19.00;99.90
31727;DHT22;18308;53.072;8.820;2022-07-03T00:47:20;19.00;99.90
31727;DHT22;18308;53.072;8.820;2022-07-03T00:49:46;18.90;99.90
31727;DHT22;18308;53.072;8.820;2022-07-03T00:52:13;18.90;99.90
31727;DHT22;18308;53.072;8.820;2022-07-03T00:54:42;18.90;99.90
31727;DHT22;18308;53.072;8.820;2022-07-03T00:57:07;18.80;99.90
31727;DHT22;18308;53.072;8.820;2022-07-03T00:59:38;18.80;99.90
31727;DHT22;18308;53.072;8.820;2022-07-03T01:02:04;18.80;99.90
31727;DHT22;18308;53.072;8.820;2022-07-03T01:07:06;18.90;99.90
31727;DHT22;18308;53.072;8.820;2022-07-03T01:09:46;18.90;99.90
31727;DHT22;18308;53.072;8.820;2022-07-03T01:12:16;18.80;99.90
31727;DHT22;18308;53.072;8.820;2022-07-03T01:17:34;18.90;99.90
31727;DHT22;18308;53.072;8.820;2022-07-03T01:20:03;18.80;99.90
31727;DHT22;18308;53.072;8.820;2022-07-03T01:28:13;18.80;99.90
31727;DHT22;18308;53.072;8.820;2022-07-03T01:30:42;18.70;99.90
31727;DHT22;18308;53.072;8.820;2022-07-03T01:33:09;18.70;99.90
31727;DHT22;18308;53.072;8.820;2022-07-03T01:35:36;18.70;99.90
31727;DHT22;18308;53.072;8.820;2022-07-03T01:38:03;18.60;99.90
31727;DHT22;18308;53.072;8.820;2022-07-03T01:40:31;18.60;99.90
31727;DHT22;18308;53.072;8.820;2022-07-03T01:42:56;18.60;99.90
31727;DHT22;18308;53.072;8.820;2022-07-03T01:45:24;18.60;99.90
31727;DHT22;18308;53.072;8.820;2022-07-03T01:47:52;18.50;99.90
31727;DHT22;18308;53.072;8.820;2022-07-03T01:50:18;18.50;99.90
31727;DHT22;18308;53.072;8.820;2022-07-03T01:52:45;18.50;99.90
31727;DHT22;18308;53.072;8.820;2022-07-03T01:55:13;18.40;99.90
31727;DHT22;18308;53.072;8.820;2022-07-03T01:57:43;18.40;99.90
31727;DHT22;18308;53.072;8.820;2022-07-03T02:00:09;18.40;99.90
31727;DHT22;18308;53.072;8.820;2022-07-03T02:02:36;18.30;99.90
31727;DHT22;18308;53.072;8.820;2022-07-03T02:05:08;18.30;99.90
31727;DHT22;18308;53.072;8.820;2022-07-03T02:07:46;18.20;99.90
31727;DHT22;18308;53.072;8.820;2022-07-03T02:10:14;18.20;99.90
31727;DHT22;18308;53.072;8.820;2022-07-03T02:15:12;18.10;99.90
31727;DHT22;18308;53.072;8.820;2022-07-03T02:17:43;18.10;99.90
31727;DHT22;18308;53.072;8.820;2022-07-03T02:20:09;18.10;99.90
31727;DHT22;18308;53.072;8.820;2022-07-03T02:22:40;18.10;99.90
31727;DHT22;18308;53.072;8.820;2022-07-03T02:25:13;18.00;99.90
31727;DHT22;18308;53.072;8.820;2022-07-03T02:27:44;18.00;99.90
31727;DHT22;18308;53.072;8.820;2022-07-03T02:30:13;18.10;99.90
31727;DHT22;18308;53.072;8.820;2022-07-03T02:32:47;18.00;99.90
31727;DHT22;18308;53.072;8.820;2022-07-03T02:37:50;18.00;99.90
31727;DHT22;18308;53.072;8.820;2022-07-03T02:45:19;18.00;99.90
31727;DHT22;18308;53.072;8.820;2022-07-03T02:47:51;18.00;99.90
31727;DHT22;18308;53.072;8.820;2022-07-03T02:50:22;17.90;99.90
31727;DHT22;18308;53.072;8.820;2022-07-03T02:58:05;17.90;99.90
31727;DHT22;18308;53.072;8.820;2022-07-03T03:00:33;17.90;99.90
31727;DHT22;18308;53.072;8.820;2022-07-03T03:03:00;17.80;99.90
31727;DHT22;18308;53.072;8.820;2022-07-03T03:05:28;17.80;99.90
31727;DHT22;18308;53.072;8.820;2022-07-03T03:10:26;17.80;99.90
31727;DHT22;18308;53.072;8.820;2022-07-03T03:12:55;17.70;99.90
31727;DHT22;18308;53.072;8.820;2022-07-03T03:15:22;17.70;99.90
31727;DHT22;18308;53.072;8.820;2022-07-03T03:17:50;17.70;99.90
31727;DHT22;18308;53.072;8.820;2022-07-03T03:20:16;17.70;99.90
31727;DHT22;18308;53.072;8.820;2022-07-03T03:25:09;17.70;99.90
31727;DHT22;18308;53.072;8.820;2022-07-03T03:27:34;17.70;99.90
31727;DHT22;18308;53.072;8.820;2022-07-03T03:30:00;17.70;99.90
31727;DHT22;18308;53.072;8.820;2022-07-03T03:32:26;17.80;99.90
31727;DHT22;18308;53.072;8.820;2022-07-03T03:34:52;17.80;99.90
31727;DHT22;18308;53.072;8.820;2022-07-03T03:37:18;17.80;99.90
31727;DHT22;18308;53.072;8.820;2022-07-03T03:39:43;17.80;99.90
31727;DHT22;18308;53.072;8.820;2022-07-03T03:42:09;17.80;99.90
31727;DHT22;18308;53.072;8.820;2022-07-03T03:44:34;17.80;99.90
31727;DHT22;18308;53.072;8.820;2022-07-03T03:47:00;17.80;99.90
31727;DHT22;18308;53.072;8.820;2022-07-03T03:49:27;17.80;99.90
31727;DHT22;18308;53.072;8.820;2022-07-03T03:51:54;17.70;99.90
31727;DHT22;18308;53.072;8.820;2022-07-03T03:54:19;17.70;99.90
31727;DHT22;18308;53.072;8.820;2022-07-03T03:56:45;17.70;99.90
31727;DHT22;18308;53.072;8.820;2022-07-03T03:59:12;17.70;99.90
31727;DHT22;18308;53.072;8.820;2022-07-03T04:01:38;17.70;99.90
31727;DHT22;18308;53.072;8.820;2022-07-03T04:04:03;17.70;99.90
31727;DHT22;18308;53.072;8.820;2022-07-03T04:06:29;17.70;99.90
31727;DHT22;18308;53.072;8.820;2022-07-03T04:08:54;17.70;99.90
31727;DHT22;18308;53.072;8.820;2022-07-03T04:11:20;17.70;99.90
31727;DHT22;18308;53.072;8.820;2022-07-03T04:13:45;17.70;99.90
31727;DHT22;18308;53.072;8.820;2022-07-03T04:16:11;17.70;99.90
31727;DHT22;18308;53.072;8.820;2022-07-03T04:18:36;17.70;99.90
31727;DHT22;18308;53.072;8.820;2022-07-03T04:21:02;17.80;99.90
31727;DHT22;18308;53.072;8.820;2022-07-03T04:23:28;17.90;99.90
31727;DHT22;18308;53.072;8.820;2022-07-03T04:25:54;17.90;99.90
31727;DHT22;18308;53.072;8.820;2022-07-03T04:28:19;17.90;99.90
31727;DHT22;18308;53.072;8.820;2022-07-03T04:30:45;18.00;99.90
31727;DHT22;18308;53.072;8.820;2022-07-03T04:33:10;18.00;99.90
31727;DHT22;18308;53.072;8.820;2022-07-03T04:35:36;18.00;99.90
31727;DHT22;18308;53.072;8.820;2022-07-03T04:38:01;18.10;99.90
31727;DHT22;18308;53.072;8.820;2022-07-03T04:40:27;18.20;99.90
31727;DHT22;18308;53.072;8.820;2022-07-03T04:42:52;18.20;99.90
31727;DHT22;18308;53.072;8.820;2022-07-03T04:45:18;18.20;99.90
31727;DHT22;18308;53.072;8.820;2022-07-03T04:47:43;18.30;99.90
31727;DHT22;18308;53.072;8.820;2022-07-03T04:50:09;18.30;99.90
31727;DHT22;18308;53.072;8.820;2022-07-03T04:52:34;18.30;99.90
31727;DHT22;18308;53.072;8.820;2022-07-03T04:55:00;18.30;99.90
31727;DHT22;18308;53.072;8.820;2022-07-03T04:57:27;18.30;99.90
31727;DHT22;18308;53.072;8.820;2022-07-03T04:59:53;18.30;99.90
31727;DHT22;18308;53.072;8.820;2022-07-03T05:02:19;18.30;99.90
31727;DHT22;18308;53.072;8.820;2022-07-03T05:04:44;18.20;99.90
31727;DHT22;18308;53.072;8.820;2022-07-03T05:07:10;18.20;99.90
31727;DHT22;18308;53.072;8.820;2022-07-03T05:09:35;18.20;99.90
31727;DHT22;18308;53.072;8.820;2022-07-03T05:12:01;18.20;99.90
31727;DHT22;18308;53.072;8.820;2022-07-03T05:14:26;18.20;99.90
31727;DHT22;18308;53.072;8.820;2022-07-03T05:16:52;18.20;99.90
31727;DHT22;18308;53.072;8.820;2022-07-03T05:19:17;18.20;99.90
31727;DHT22;18308;53.072;8.820;2022-07-03T05:21:43;18.30;99.90
31727;DHT22;18308;53.072;8.820;2022-07-03T05:24:08;18.40;99.90
31727;DHT22;18308;53.072;8.820;2022-07-03T05:26:34;18.50;99.90
31727;DHT22;18308;53.072;8.820;2022-07-03T05:28:59;18.50;99.90
31727;DHT22;18308;53.072;8.820;2022-07-03T05:31:25;18.60;99.90
31727;DHT22;18308;53.072;8.820;2022-07-03T05:33:50;18.70;99.90
31727;DHT22;18308;53.072;8.820;2022-07-03T05:36:16;18.90;99.90
31727;DHT22;18308;53.072;8.820;2022-07-03T05:38:41;19.00;99.90
31727;DHT22;18308;53.072;8.820;2022-07-03T05:41:25;19.10;99.90
31727;DHT22;18308;53.072;8.820;2022-07-03T05:43:51;19.20;99.90
31727;DHT22;18308;53.072;8.820;2022-07-03T05:46:16;19.30;99.90
31727;DHT22;18308;53.072;8.820;2022-07-03T05:48:42;19.50;99.90
31727;DHT22;18308;53.072;8.820;2022-07-03T05:51:07;19.50;99.90
31727;DHT22;18308;53.072;8.820;2022-07-03T05:53:33;19.60;99.90
31727;DHT22;18308;53.072;8.820;2022-07-03T05:55:58;19.80;99.90
31727;DHT22;18308;53.072;8.820;2022-07-03T05:58:24;19.80;99.90
31727;DHT22;18308;53.072;8.820;2022-07-03T06:00:49;20.00;99.90
31727;DHT22;18308;53.072;8.820;2022-07-03T06:03:15;20.00;99.90
31727;DHT22;18308;53.072;8.820;2022-07-03T06:05:40;20.10;99.90
31727;DHT22;18308;53.072;8.820;2022-07-03T06:08:06;20.10;99.90
31727;DHT22;18308;53.072;8.820;2022-07-03T06:10:31;20.30;99.90
31727;DHT22;18308;53.072;8.820;2022-07-03T06:12:57;20.50;99.90
31727;DHT22;18308;53.072;8.820;2022-07-03T06:15:22;20.60;99.90
31727;DHT22;18308;53.072;8.820;2022-07-03T06:17:48;20.80;99.90
31727;DHT22;18308;53.072;8.820;2022-07-03T06:20:14;20.90;99.90
31727;DHT22;18308;53.072;8.820;2022-07-03T06:22:39;21.20;99.90
31727;DHT22;18308;53.072;8.820;2022-07-03T06:25:05;21.30;99.90
31727;DHT22;18308;53.072;8.820;2022-07-03T06:27:31;21.40;99.90
31727;DHT22;18308;53.072;8.820;2022-07-03T06:29:57;21.40;99.90
31727;DHT22;18308;53.072;8.820;2022-07-03T06:32:22;21.40;99.90
31727;DHT22;18308;53.072;8.820;2022-07-03T06:34:48;21.40;99.90
31727;DHT22;18308;53.072;8.820;2022-07-03T06:37:13;21.50;99.90
31727;DHT22;18308;53.072;8.820;2022-07-03T06:39:39;21.60;99.90
31727;DHT22;18308;53.072;8.820;2022-07-03T06:42:04;21.70;99.90
31727;DHT22;18308;53.072;8.820;2022-07-03T06:44:30;21.70;99.90
31727;DHT22;18308;53.072;8.820;2022-07-03T06:46:56;21.80;99.90
31727;DHT22;18308;53.072;8.820;2022-07-03T06:49:22;22.00;99.90
31727;DHT22;18308;53.072;8.820;2022-07-03T06:51:48;22.10;99.90
31727;DHT22;18308;53.072;8.820;2022-07-03T06:54:13;22.30;99.90
31727;DHT22;18308;53.072;8.820;2022-07-03T06:56:39;22.40;99.90
31727;DHT22;18308;53.072;8.820;2022-07-03T06:59:05;22.50;99.90
31727;DHT22;18308;53.072;8.820;2022-07-03T07:01:30;22.60;99.90
31727;DHT22;18308;53.072;8.820;2022-07-03T07:03:56;22.80;99.90
31727;DHT22;18308;53.072;8.820;2022-07-03T07:06:22;22.90;99.90
31727;DHT22;18308;53.072;8.820;2022-07-03T07:08:48;23.00;99.90
31727;DHT22;18308;53.072;8.820;2022-07-03T07:11:13;23.20;99.90
31727;DHT22;18308;53.072;8.820;2022-07-03T07:13:39;23.40;99.90
31727;DHT22;18308;53.072;8.820;2022-07-03T07:16:04;23.60;99.90
31727;DHT22;18308;53.072;8.820;2022-07-03T07:18:30;23.90;99.90
31727;DHT22;18308;53.072;8.820;2022-07-03T07:20:56;24.10;99.90
31727;DHT22;18308;53.072;8.820;2022-07-03T07:23:21;24.30;99.90
31727;DHT22;18308;53.072;8.820;2022-07-03T07:25:47;24.50;99.90
31727;DHT22;18308;53.072;8.820;2022-07-03T07:28:12;24.80;99.90
31727;DHT22;18308;53.072;8.820;2022-07-03T07:30:38;25.00;99.90
31727;DHT22;18308;53.072;8.820;2022-07-03T07:33:07;25.30;99.90
31727;DHT22;18308;53.072;8.820;2022-07-03T07:35:32;25.30;99.90
31727;DHT22;18308;53.072;8.820;2022-07-03T07:37:57;25.30;99.90
31727;DHT22;18308;53.072;8.820;2022-07-03T07:40:23;25.30;99.60
31727;DHT22;18308;53.072;8.820;2022-07-03T07:42:49;25.30;99.30
31727;DHT22;18308;53.072;8.820;2022-07-03T07:45:14;25.30;99.00
31727;DHT22;18308;53.072;8.820;2022-07-03T07:47:40;25.20;98.50
31727;DHT22;18308;53.072;8.820;2022-07-03T07:50:06;25.10;98.60
31727;DHT22;18308;53.072;8.820;2022-07-03T07:52:31;25.10;98.10
31727;DHT22;18308;53.072;8.820;2022-07-03T07:54:57;25.00;98.10
31727;DHT22;18308;53.072;8.820;2022-07-03T07:57:22;25.00;98.50
31727;DHT22;18308;53.072;8.820;2022-07-03T07:59:48;25.10;98.50
31727;DHT22;18308;53.072;8.820;2022-07-03T08:02:13;25.10;97.40
31727;DHT22;18308;53.072;8.820;2022-07-03T08:04:57;25.30;96.80
31727;DHT22;18308;53.072;8.820;2022-07-03T08:07:42;25.50;95.80
31727;DHT22;18308;53.072;8.820;2022-07-03T08:10:07;25.50;97.70
31727;DHT22;18308;53.072;8.820;2022-07-03T08:12:33;25.50;97.30
31727;DHT22;18308;53.072;8.820;2022-07-03T08:14:58;25.50;94.80
31727;DHT22;18308;53.072;8.820;2022-07-03T08:17:24;25.50;93.90
31727;DHT22;18308;53.072;8.820;2022-07-03T08:19:49;25.50;93.70
31727;DHT22;18308;53.072;8.820;2022-07-03T08:22:15;25.50;94.10
31727;DHT22;18308;53.072;8.820;2022-07-03T08:24:40;25.50;92.70
31727;DHT22;18308;53.072;8.820;2022-07-03T08:27:06;25.60;90.20
31727;DHT22;18308;53.072;8.820;2022-07-03T08:29:31;25.60;91.20
31727;DHT22;18308;53.072;8.820;2022-07-03T08:31:57;25.70;91.80
31727;DHT22;18308;53.072;8.820;2022-07-03T08:34:22;25.60;91.20
31727;DHT22;18308;53.072;8.820;2022-07-03T08:36:48;25.60;90.40
31727;DHT22;18308;53.072;8.820;2022-07-03T08:39:14;25.50;90.00
31727;DHT22;18308;53.072;8.820;2022-07-03T08:41:40;25.40;91.30
31727;DHT22;18308;53.072;8.820;2022-07-03T08:44:07;25.30;92.60
31727;DHT22;18308;53.072;8.820;2022-07-03T08:46:33;25.40;90.70
31727;DHT22;18308;53.072;8.820;2022-07-03T08:48:59;25.50;90.60
31727;DHT22;18308;53.072;8.820;2022-07-03T08:51:27;25.50;90.70
31727;DHT22;18308;53.072;8.820;2022-07-03T08:53:52;25.60;90.60
31727;DHT22;18308;53.072;8.820;2022-07-03T08:56:20;25.80;90.90
31727;DHT22;18308;53.072;8.820;2022-07-03T08:58:46;25.80;90.90
31727;DHT22;18308;53.072;8.820;2022-07-03T09:01:14;26.00;90.70
31727;DHT22;18308;53.072;8.820;2022-07-03T09:03:39;26.20;88.20
31727;DHT22;18308;53.072;8.820;2022-07-03T09:06:05;26.40;88.00
31727;DHT22;18308;53.072;8.820;2022-07-03T09:08:30;26.40;88.00
31727;DHT22;18308;53.072;8.820;2022-07-03T09:10:57;26.40;87.10
31727;DHT22;18308;53.072;8.820;2022-07-03T09:13:23;26.30;87.30
31727;DHT22;18308;53.072;8.820;2022-07-03T09:15:48;26.30;87.10
31727;DHT22;18308;53.072;8.820;2022-07-03T09:18:14;26.30;87.10
31727;DHT22;18308;53.072;8.820;2022-07-03T09:20:40;26.30;87.40
31727;DHT22;18308;53.072;8.820;2022-07-03T09:25:50;26.50;88.70
31727;DHT22;18308;53.072;8.820;2022-07-03T09:28:15;26.50;88.80
31727;DHT22;18308;53.072;8.820;2022-07-03T09:30:55;26.50;87.80
31727;DHT22;18308;53.072;8.820;2022-07-03T09:33:20;26.60;87.80
31727;DHT22;18308;53.072;8.820;2022-07-03T09:35:48;26.50;86.70
31727;DHT22;18308;53.072;8.820;2022-07-03T09:38:17;26.50;87.50
31727;DHT22;18308;53.072;8.820;2022-07-03T09:40:53;26.50;88.30
31727;DHT22;18308;53.072;8.820;2022-07-03T09:43:23;26.50;87.20
31727;DHT22;18308;53.072;8.820;2022-07-03T09:45:56;26.60;86.80
31727;DHT22;18308;53.072;8.820;2022-07-03T09:48:26;26.60;87.70
31727;DHT22;18308;53.072;8.820;2022-07-03T09:51:07;26.80;87.80
31727;DHT22;18308;53.072;8.820;2022-07-03T09:56:32;27.10;86.90
31727;DHT22;18308;53.072;8.820;2022-07-03T09:59:11;27.30;86.90
31727;DHT22;18308;53.072;8.820;2022-07-03T10:01:41;27.30;86.70
31727;DHT22;18308;53.072;8.820;2022-07-03T10:09:17;27.40;86.40
31727;DHT22;18308;53.072;8.820;2022-07-03T10:11:43;27.50;86.10
31727;DHT22;18308;53.072;8.820;2022-07-03T10:14:11;27.40;86.90
31727;DHT22;18308;53.072;8.820;2022-07-03T10:16:37;27.20;86.30
31727;DHT22;18308;53.072;8.820;2022-07-03T10:19:03;26.90;86.80
31727;DHT22;18308;53.072;8.820;2022-07-03T10:21:30;26.60;88.10
31727;DHT22;18308;53.072;8.820;2022-07-03T10:23:56;26.60;88.10
31727;DHT22;18308;53.072;8.820;2022-07-03T10:26:22;26.70;88.10
31727;DHT22;18308;53.072;8.820;2022-07-03T10:28:48;26.80;87.60
31727;DHT22;18308;53.072;8.820;2022-07-03T10:31:14;27.00;88.50
31727;DHT22;18308;53.072;8.820;2022-07-03T10:33:40;27.20;87.60
31727;DHT22;18308;53.072;8.820;2022-07-03T10:36:06;27.30;85.80
31727;DHT22;18308;53.072;8.820;2022-07-03T10:43:44;27.00;84.00
31727;DHT22;18308;53.072;8.820;2022-07-03T10:46:29;26.90;84.30
31727;DHT22;18308;53.072;8.820;2022-07-03T10:51:20;27.00;85.40
31727;DHT22;18308;53.072;8.820;2022-07-03T10:53:46;27.10;85.30
31727;DHT22;18308;53.072;8.820;2022-07-03T10:56:12;27.20;85.20
31727;DHT22;18308;53.072;8.820;2022-07-03T10:58:56;27.30;85.40
31727;DHT22;18308;53.072;8.820;2022-07-03T11:01:28;27.40;84.70
31727;DHT22;18308;53.072;8.820;2022-07-03T11:03:56;27.30;85.20
31727;DHT22;18308;53.072;8.820;2022-07-03T11:09:08;27.20;86.90
31727;DHT22;18308;53.072;8.820;2022-07-03T11:11:44;27.10;85.70
31727;DHT22;18308;53.072;8.820;2022-07-03T11:14:26;26.90;86.70
31727;DHT22;18308;53.072;8.820;2022-07-03T11:19:36;26.70;90.00
31727;DHT22;18308;53.072;8.820;2022-07-03T11:22:03;26.60;90.20
31727;DHT22;18308;53.072;8.820;2022-07-03T11:24:35;26.60;89.40
31727;DHT22;18308;53.072;8.820;2022-07-03T11:27:14;26.70;87.80
31727;DHT22;18308;53.072;8.820;2022-07-03T11:29:40;26.90;88.20
31727;DHT22;18308;53.072;8.820;2022-07-03T11:34:50;27.30;84.70
31727;DHT22;18308;53.072;8.820;2022-07-03T11:37:21;27.40;84.80
31727;DHT22;18308;53.072;8.820;2022-07-03T11:39:48;27.30;85.10
31727;DHT22;18308;53.072;8.820;2022-07-03T11:42:16;27.20;86.30
31727;DHT22;18308;53.072;8.820;2022-07-03T11:44:43;27.30;87.10
31727;DHT22;18308;53.072;8.820;2022-07-03T11:47:08;27.40;88.10
31727;DHT22;18308;53.072;8.820;2022-07-03T11:49:35;27.50;89.60
31727;DHT22;18308;53.072;8.820;2022-07-03T11:52:01;27.70;89.50
31727;DHT22;18308;53.072;8.820;2022-07-03T11:54:31;27.70;88.80
31727;DHT22;18308;53.072;8.820;2022-07-03T11:56:56;27.70;89.30
31727;DHT22;18308;53.072;8.820;2022-07-03T11:59:22;27.70;88.80
31727;DHT22;18308;53.072;8.820;2022-07-03T12:01:47;27.70;89.10
31727;DHT22;18308;53.072;8.820;2022-07-03T12:04:20;27.70;88.70
31727;DHT22;18308;53.072;8.820;2022-07-03T12:06:52;27.70;88.60
31727;DHT22;18308;53.072;8.820;2022-07-03T12:12:00;27.70;87.40
31727;DHT22;18308;53.072;8.820;2022-07-03T12:17:04;27.50;85.80
31727;DHT22;18308;53.072;8.820;2022-07-03T12:19:29;27.40;86.40
31727;DHT22;18308;53.072;8.820;2022-07-03T12:21:55;27.40;86.80
31727;DHT22;18308;53.072;8.820;2022-07-03T12:24:20;27.20;87.10
31727;DHT22;18308;53.072;8.820;2022-07-03T12:26:46;27.20;87.50
31727;DHT22;18308;53.072;8.820;2022-07-03T12:29:13;27.20;87.30
31727;DHT22;18308;53.072;8.820;2022-07-03T12:31:43;27.30;84.50
31727;DHT22;18308;53.072;8.820;2022-07-03T12:34:09;27.60;84.40
31727;DHT22;18308;53.072;8.820;2022-07-03T12:36:35;27.80;82.40
31727;DHT22;18308;53.072;8.820;2022-07-03T12:39:01;28.00;81.30
31727;DHT22;18308;53.072;8.820;2022-07-03T12:41:27;28.10;81.60
31727;DHT22;18308;53.072;8.820;2022-07-03T12:43:52;28.20;79.80
31727;DHT22;18308;53.072;8.820;2022-07-03T12:48:47;28.10;81.00
31727;DHT22;18308;53.072;8.820;2022-07-03T12:51:13;28.00;84.00
31727;DHT22;18308;53.072;8.820;2022-07-03T12:53:38;27.70;85.40
31727;DHT22;18308;53.072;8.820;2022-07-03T12:56:05;27.50;86.70
31727;DHT22;18308;53.072;8.820;2022-07-03T12:58:30;27.60;87.40
31727;DHT22;18308;53.072;8.820;2022-07-03T13:01:24;27.50;88.30
31727;DHT22;18308;53.072;8.820;2022-07-03T13:03:51;27.60;87.20
31727;DHT22;18308;53.072;8.820;2022-07-03T13:06:16;27.80;86.70
31727;DHT22;18308;53.072;8.820;2022-07-03T13:08:49;27.90;85.70
31727;DHT22;18308;53.072;8.820;2022-07-03T13:11:15;27.60;87.30
31727;DHT22;18308;53.072;8.820;2022-07-03T13:13:49;27.40;87.30
31727;DHT22;18308;53.072;8.820;2022-07-03T13:16:27;27.30;87.30
31727;DHT22;18308;53.072;8.820;2022-07-03T13:18:59;27.10;87.70
31727;DHT22;18308;53.072;8.820;2022-07-03T13:21:25;27.10;88.20
31727;DHT22;18308;53.072;8.820;2022-07-03T13:23:50;27.00;89.30
31727;DHT22;18308;53.072;8.820;2022-07-03T13:26:16;27.00;88.40
31727;DHT22;18308;53.072;8.820;2022-07-03T13:28:42;26.90;88.30
31727;DHT22;18308;53.072;8.820;2022-07-03T13:31:07;26.90;88.00
31727;DHT22;18308;53.072;8.820;2022-07-03T13:33:33;26.90;86.50
31727;DHT22;18308;53.072;8.820;2022-07-03T13:35:58;26.80;87.10
31727;DHT22;18308;53.072;8.820;2022-07-03T13:38:24;26.60;87.00
31727;DHT22;18308;53.072;8.820;2022-07-03T13:40:49;26.50;87.40
31727;DHT22;18308;53.072;8.820;2022-07-03T13:43:15;26.50;87.80
31727;DHT22;18308;53.072;8.820;2022-07-03T13:45:41;26.50;88.00
31727;DHT22;18308;53.072;8.820;2022-07-03T13:48:08;26.50;87.70
31727;DHT22;18308;53.072;8.820;2022-07-03T13:50:34;26.50;88.00
31727;DHT22;18308;53.072;8.820;2022-07-03T13:52:59;26.40;90.20
31727;DHT22;18308;53.072;8.820;2022-07-03T13:55:25;26.40;90.50
31727;DHT22;18308;53.072;8.820;2022-07-03T13:57:50;26.20;90.60
31727;DHT22;18308;53.072;8.820;2022-07-03T14:00:16;26.10;90.80
31727;DHT22;18308;53.072;8.820;2022-07-03T14:02:42;26.10;90.80
31727;DHT22;18308;53.072;8.820;2022-07-03T14:05:07;26.00;91.00
31727;DHT22;18308;53.072;8.820;2022-07-03T14:07:34;25.90;91.30
31727;DHT22;18308;53.072;8.820;2022-07-03T14:09:59;25.90;92.50
31727;DHT22;18308;53.072;8.820;2022-07-03T14:12:25;25.70;94.00
31727;DHT22;18308;53.072;8.820;2022-07-03T14:14:50;25.60;95.40
31727;DHT22;18308;53.072;8.820;2022-07-03T14:17:16;25.40;96.30
31727;DHT22;18308;53.072;8.820;2022-07-03T14:19:42;25.20;97.60
31727;DHT22;18308;53.072;8.820;2022-07-03T14:22:07;25.00;98.50
31727;DHT22;18308;53.072;8.820;2022-07-03T14:24:33;24.80;99.10
31727;DHT22;18308;53.072;8.820;2022-07-03T14:26:58;24.60;99.30
31727;DHT22;18308;53.072;8.820;2022-07-03T14:29:42;24.40;99.70
31727;DHT22;18308;53.072;8.820;2022-07-03T14:32:27;24.30;99.90
31727;DHT22;18308;53.072;8.820;2022-07-03T14:34:56;24.00;99.90
31727;DHT22;18308;53.072;8.820;2022-07-03T14:37:22;23.70;99.90
31727;DHT22;18308;53.072;8.820;2022-07-03T14:39:48;23.40;99.90
31727;DHT22;18308;53.072;8.820;2022-07-03T14:42:14;23.20;99.90
31727;DHT22;18308;53.072;8.820;2022-07-03T14:44:40;22.90;99.90
31727;DHT22;18308;53.072;8.820;2022-07-03T14:47:05;22.70;99.90
31727;DHT22;18308;53.072;8.820;2022-07-03T14:49:31;22.20;99.90
31727;DHT22;18308;53.072;8.820;2022-07-03T14:52:00;21.80;99.90
31727;DHT22;18308;53.072;8.820;2022-07-03T14:54:26;21.60;99.90
31727;DHT22;18308;53.072;8.820;2022-07-03T14:56:55;21.50;99.90
31727;DHT22;18308;53.072;8.820;2022-07-03T15:01:52;21.30;99.90
31727;DHT22;18308;53.072;8.820;2022-07-03T15:05:05;21.20;99.90
31727;DHT22;18308;53.072;8.820;2022-07-03T15:07:10;21.40;99.90
31727;DHT22;18308;53.072;8.820;2022-07-03T15:09:38;21.60;99.90
31727;DHT22;18308;53.072;8.820;2022-07-03T15:12:08;21.80;99.90
31727;DHT22;18308;53.072;8.820;2022-07-03T15:14:53;22.10;99.90
31727;DHT22;18308;53.072;8.820;2022-07-03T15:17:20;22.20;99.90
31727;DHT22;18308;53.072;8.820;2022-07-03T15:19:47;22.40;99.90
31727;DHT22;18308;53.072;8.820;2022-07-03T15:22:14;22.50;99.90
31727;DHT22;18308;53.072;8.820;2022-07-03T15:24:42;22.50;99.90
31727;DHT22;18308;53.072;8.820;2022-07-03T15:27:09;22.50;99.90
31727;DHT22;18308;53.072;8.820;2022-07-03T15:29:37;22.50;99.90
31727;DHT22;18308;53.072;8.820;2022-07-03T15:32:04;22.50;99.90
31727;DHT22;18308;53.072;8.820;2022-07-03T15:34:30;22.60;99.90
31727;DHT22;18308;53.072;8.820;2022-07-03T15:39:30;22.80;99.90
31727;DHT22;18308;53.072;8.820;2022-07-03T15:49:30;23.20;99.90
31727;DHT22;18308;53.072;8.820;2022-07-03T15:52:05;23.20;99.90
31727;DHT22;18308;53.072;8.820;2022-07-03T15:57:19;23.10;99.90
31727;DHT22;18308;53.072;8.820;2022-07-03T15:59:48;23.00;99.90
31727;DHT22;18308;53.072;8.820;2022-07-03T16:02:17;22.80;99.90
31727;DHT22;18308;53.072;8.820;2022-07-03T16:07:30;22.60;99.90
31727;DHT22;18308;53.072;8.820;2022-07-03T16:09:59;22.60;99.90
31727;DHT22;18308;53.072;8.820;2022-07-03T16:12:25;22.70;99.90
31727;DHT22;18308;53.072;8.820;2022-07-03T16:14:50;22.80;99.90
31727;DHT22;18308;53.072;8.820;2022-07-03T16:17:17;22.90;99.90
31727;DHT22;18308;53.072;8.820;2022-07-03T16:19:47;22.90;99.90
31727;DHT22;18308;53.072;8.820;2022-07-03T16:22:12;23.00;99.90
31727;DHT22;18308;53.072;8.820;2022-07-03T16:24:39;23.10;99.90
31727;DHT22;18308;53.072;8.820;2022-07-03T16:27:05;23.10;99.90
31727;DHT22;18308;53.072;8.820;2022-07-03T16:29:31;23.20;99.90
31727;DHT22;18308;53.072;8.820;2022-07-03T16:31:58;23.30;99.90
31727;DHT22;18308;53.072;8.820;2022-07-03T16:34:30;23.40;99.90
31727;DHT22;18308;53.072;8.820;2022-07-03T16:36:59;23.50;99.90
31727;DHT22;18308;53.072;8.820;2022-07-03T16:39:34;23.60;99.90
31727;DHT22;18308;53.072;8.820;2022-07-03T16:42:01;23.70;99.90
31727;DHT22;18308;53.072;8.820;2022-07-03T16:44:27;23.60;99.90
31727;DHT22;18308;53.072;8.820;2022-07-03T16:46:56;23.60;99.90
31727;DHT22;18308;53.072;8.820;2022-07-03T16:49:24;23.60;99.90
31727;DHT22;18308;53.072;8.820;2022-07-03T16:51:57;23.60;99.90
31727;DHT22;18308;53.072;8.820;2022-07-03T16:54:25;23.60;99.90